createdAt,value
2022-08-21T00:01:42.283Z,2.17
2022-08-21T00:06:43.843Z,2.53
2022-08-21T00:11:46.137Z,2.47
2022-08-21T00:16:47.794Z,2.63
2022-08-21T00:21:51.638Z,2.13
2022-08-21T00:26:53.784Z,2.40
2022-08-21T00:31:55.531Z,2.33
2022-08-21T00:36:57.092Z,2.20
2022-08-21T00:41:58.644Z,2.97
2022-08-21T00:47:00.371Z,2.70
2022-08-21T00:52:02.748Z,3.28
2022-08-21T00:57:12.632Z,2.25
2022-08-21T01:02:23.293Z,2.22
2022-08-21T01:07:27.629Z,2.47
2022-08-21T01:12:29.675Z,3.10
2022-08-21T01:17:32.587Z,2.40
2022-08-21T01:22:34.171Z,2.55
2022-08-21T01:27:36.240Z,2.83
2022-08-21T01:32:37.859Z,3.30
2022-08-21T01:37:39.551Z,2.60
2022-08-21T01:42:41.290Z,2.58
2022-08-21T01:47:44.226Z,3.15
2022-08-21T01:52:46.340Z,3.88
2022-08-21T01:57:48.593Z,3.72
2022-08-21T02:02:50.816Z,2.75
2022-08-21T02:07:54.259Z,3.42
2022-08-21T02:12:57.089Z,3.28
2022-08-21T02:18:02.108Z,3.05
2022-08-21T02:23:05.144Z,3.42
2022-08-21T02:28:10.597Z,3.13
2022-08-21T02:33:12.652Z,3.25
2022-08-21T02:38:18.009Z,3.92
2022-08-21T02:43:21.735Z,4.00
2022-08-21T02:48:27.340Z,4.00
2022-08-21T02:53:30.489Z,4.65
2022-08-21T02:58:35.751Z,4.15
2022-08-21T03:03:40.132Z,3.60
2022-08-21T03:08:41.809Z,4.00
2022-08-21T03:13:43.508Z,4.75
2022-08-21T03:18:45.139Z,3.33
2022-08-21T03:23:47.551Z,3.70
2022-08-21T03:28:49.736Z,3.55
2022-08-21T03:33:51.919Z,4.88
2022-08-21T03:38:53.510Z,3.88
2022-08-21T03:43:55.192Z,4.68
2022-08-21T03:48:56.981Z,4.18
2022-08-21T03:53:58.936Z,3.88
2022-08-21T03:59:00.503Z,3.80
2022-08-21T04:04:02.141Z,5.35
2022-08-21T04:09:03.752Z,4.38
2022-08-21T04:14:05.435Z,5.00
2022-08-21T04:19:07.071Z,3.60
2022-08-21T04:24:10.611Z,4.57
2022-08-21T04:29:12.417Z,4.30
2022-08-21T04:34:14.473Z,4.20
2022-08-21T04:39:16.037Z,4.63
2022-08-21T04:44:17.661Z,4.15
2022-08-21T04:49:19.229Z,3.95
2022-08-21T04:54:22.856Z,4.70
2022-08-21T04:59:32.326Z,4.90
2022-08-21T05:04:37.807Z,4.15
2022-08-21T05:09:39.900Z,5.13
2022-08-21T05:14:43.268Z,3.50
2022-08-21T05:19:44.847Z,4.03
2022-08-21T05:24:46.394Z,3.67
2022-08-21T05:29:47.951Z,3.95
2022-08-21T05:34:49.512Z,3.75
2022-08-21T05:40:04.696Z,2.92
2022-08-21T05:45:12.923Z,3.38
2022-08-21T05:50:14.523Z,3.70
2022-08-21T05:55:16.110Z,3.28
2022-08-21T06:00:17.879Z,3.47
2022-08-21T06:05:33.395Z,2.95
2022-08-21T06:10:39.157Z,2.67
2022-08-21T06:15:40.851Z,2.90
2022-08-21T06:20:45.043Z,2.70
2022-08-21T06:25:47.220Z,2.80
2022-08-21T06:30:48.863Z,2.60
2022-08-21T06:35:50.787Z,2.45
2022-08-21T06:40:52.363Z,2.63
2022-08-21T06:45:53.945Z,2.85
2022-08-21T06:50:56.953Z,2.47
2022-08-21T06:55:58.507Z,2.30
2022-08-21T07:01:01.306Z,2.38
2022-08-21T07:06:04.222Z,2.47
2022-08-21T07:11:12.449Z,2.45
2022-08-21T07:16:14.129Z,2.80
2022-08-21T07:21:20.752Z,2.28
2022-08-21T07:31:27.779Z,2.13
2022-08-21T07:36:29.399Z,2.13
2022-08-21T07:41:35.668Z,1.92
2022-08-21T07:46:37.247Z,2.42
2022-08-21T07:51:38.839Z,2.95
2022-08-21T07:56:40.391Z,2.40
2022-08-21T08:01:42.316Z,2.53
2022-08-21T08:06:44.049Z,2.22
2022-08-21T08:11:46.713Z,2.58
2022-08-21T08:16:48.281Z,2.53
2022-08-21T08:21:50.449Z,2.58
2022-08-21T08:26:53.706Z,1.92
2022-08-21T08:31:55.968Z,2.20
2022-08-21T08:36:59.536Z,2.85
2022-08-21T08:42:32.378Z,2.17
2022-08-21T08:47:32.124Z,2.33
2022-08-21T08:52:43.647Z,2.10
2022-08-21T08:57:49.457Z,2.67
2022-08-21T09:03:00.723Z,2.67
2022-08-21T09:08:24.078Z,2.28
2022-08-21T09:13:38.589Z,2.67
2022-08-21T09:18:57.852Z,2.47
2022-08-21T09:24:17.371Z,2.45
2022-08-21T09:34:29.963Z,2.88
2022-08-21T09:39:39.870Z,2.63
2022-08-21T09:44:44.835Z,2.33
2022-08-21T09:49:46.431Z,2.50
2022-08-21T09:54:53.938Z,2.63
2022-08-21T09:59:56.330Z,2.67
2022-08-21T10:05:01.071Z,2.75
2022-08-21T10:10:15.415Z,2.10
2022-08-21T10:15:23.382Z,2.00
2022-08-21T10:20:37.221Z,2.42
2022-08-21T10:26:13.572Z,2.30
2022-08-21T10:31:39.607Z,2.22
2022-08-21T10:37:07.798Z,2.72
2022-08-21T10:42:53.908Z,2.50
2022-08-21T10:47:58.368Z,2.05
2022-08-21T10:53:20.404Z,2.42
2022-08-21T10:58:35.771Z,2.38
2022-08-21T11:03:44.733Z,2.42
2022-08-21T11:08:52.095Z,2.60
2022-08-21T11:14:25.323Z,2.30
2022-08-21T11:19:46.022Z,1.98
2022-08-21T11:25:01.652Z,2.03
2022-08-21T11:30:04.507Z,2.25
2022-08-21T11:35:34.639Z,2.53
2022-08-21T11:40:53.115Z,2.22
2022-08-21T11:46:00.200Z,2.08
2022-08-21T11:51:07.977Z,1.90
2022-08-21T11:56:20.035Z,2.03
2022-08-21T12:01:34.238Z,2.05
2022-08-21T12:06:41.840Z,2.17
2022-08-21T12:12:06.653Z,2.00
2022-08-21T12:17:12.231Z,2.33
2022-08-21T12:22:15.812Z,1.88
2022-08-21T12:27:27.660Z,1.75
2022-08-21T12:32:43.236Z,2.47
2022-08-21T12:37:50.872Z,1.88
2022-08-21T12:42:59.308Z,1.92
2022-08-21T12:48:08.173Z,1.97
2022-08-21T12:53:41.326Z,2.55
2022-08-21T12:58:51.872Z,1.80
2022-08-21T13:04:04.947Z,2.05
2022-08-21T13:09:10.858Z,2.00
2022-08-21T13:14:26.893Z,2.13
2022-08-21T13:19:30.524Z,2.13
2022-08-21T13:24:44.887Z,2.40
2022-08-21T13:29:53.291Z,2.20
2022-08-21T13:39:57.438Z,2.30
2022-08-21T13:44:59.123Z,2.30
2022-08-21T13:50:00.787Z,2.08
2022-08-21T13:55:13.718Z,2.38
2022-08-21T14:00:28.127Z,2.10
2022-08-21T14:05:33.625Z,2.05
2022-08-21T14:10:42.124Z,2.00
2022-08-21T14:15:44.491Z,1.90
2022-08-21T14:20:46.414Z,2.03
2022-08-21T14:25:48.010Z,2.10
2022-08-21T14:30:51.595Z,2.20
2022-08-21T14:35:55.667Z,1.90
2022-08-21T14:41:04.869Z,1.75
2022-08-21T14:46:06.474Z,2.40
2022-08-21T14:51:08.028Z,2.05
2022-08-21T14:56:10.975Z,2.28
2022-08-21T15:01:14.346Z,2.33
2022-08-21T15:06:18.605Z,2.17
2022-08-21T15:11:42.165Z,1.92
2022-08-21T15:16:44.625Z,2.20
2022-08-21T15:21:46.192Z,2.00
2022-08-21T15:26:48.540Z,2.22
2022-08-21T15:31:53.523Z,2.00
2022-08-21T15:36:58.461Z,1.70
2022-08-21T15:42:02.789Z,1.77
2022-08-21T15:47:19.278Z,1.95
2022-08-21T15:52:22.410Z,2.08
2022-08-21T15:57:25.385Z,2.35
2022-08-21T16:02:31.282Z,2.15
2022-08-21T16:07:32.892Z,2.22
2022-08-21T16:12:38.827Z,2.10
2022-08-21T16:17:45.328Z,2.00
2022-08-21T16:22:47.379Z,2.22
2022-08-21T16:27:56.199Z,1.90
2022-08-21T16:38:33.386Z,2.20
2022-08-21T16:43:39.947Z,2.10
2022-08-21T16:48:44.939Z,1.83
2022-08-21T16:53:46.495Z,2.00
2022-08-21T16:58:50.253Z,2.00
2022-08-21T17:03:53.337Z,2.08
2022-08-21T17:08:54.885Z,1.70
2022-08-21T17:13:58.711Z,1.98
2022-08-21T17:19:00.397Z,1.40
2022-08-21T17:24:01.975Z,1.73
2022-08-21T17:29:09.675Z,1.50
2022-08-21T17:34:12.497Z,1.70
2022-08-21T17:39:26.447Z,1.80
2022-08-21T17:44:28.385Z,1.75
2022-08-21T17:49:29.919Z,1.45
2022-08-21T17:54:31.577Z,1.77
2022-08-21T17:59:34.571Z,1.65
2022-08-21T18:04:36.118Z,1.70
2022-08-21T18:09:37.666Z,1.73
2022-08-21T18:20:42.429Z,1.50
2022-08-21T18:25:49.460Z,1.73
2022-08-21T18:30:54.175Z,1.50
2022-08-21T18:35:55.704Z,1.70
2022-08-21T18:40:59.789Z,1.65
2022-08-21T18:46:02.150Z,1.75
2022-08-21T18:51:04.895Z,1.60
2022-08-21T18:56:16.001Z,1.92
2022-08-21T19:01:17.849Z,2.07
2022-08-21T19:06:20.111Z,2.33
2022-08-21T19:11:25.037Z,2.17
2022-08-21T19:16:26.788Z,2.05
2022-08-21T19:21:28.748Z,3.03
2022-08-21T19:26:32.181Z,2.40
2022-08-21T19:31:45.357Z,2.33
2022-08-21T19:36:47.150Z,2.60
2022-08-21T19:41:54.027Z,1.83
2022-08-21T19:46:57.865Z,1.90
2022-08-21T19:52:00.139Z,2.30
2022-08-21T19:57:06.835Z,1.80
2022-08-21T20:02:09.867Z,1.70
2022-08-21T20:07:11.537Z,1.90
2022-08-21T20:12:15.657Z,1.90
2022-08-21T20:17:19.261Z,3.35
2022-08-21T20:22:21.580Z,2.20
2022-08-21T20:27:27.611Z,1.98
2022-08-21T20:32:29.291Z,1.67
2022-08-21T20:37:37.016Z,2.17
2022-08-21T20:42:44.659Z,2.00
2022-08-21T20:47:46.803Z,2.00
2022-08-21T20:53:00.635Z,1.98
2022-08-21T20:58:30.812Z,1.85
2022-08-21T21:03:38.119Z,2.10
2022-08-21T21:08:49.789Z,1.88
2022-08-21T21:14:02.004Z,1.95
2022-08-21T21:19:20.976Z,1.70
2022-08-21T21:24:29.050Z,2.38
2022-08-21T21:29:40.066Z,2.03
2022-08-21T21:34:46.325Z,2.10
2022-08-21T21:40:32.769Z,1.90
2022-08-21T21:45:43.846Z,1.80
2022-08-21T21:51:12.105Z,2.33
2022-08-21T21:56:42.608Z,2.15
2022-08-21T22:01:55.684Z,2.47
2022-08-21T22:07:12.921Z,1.80
2022-08-21T22:18:05.663Z,2.03
2022-08-21T22:23:15.912Z,1.80
2022-08-21T22:28:25.537Z,1.60
2022-08-21T22:33:29.407Z,2.33
2022-08-21T22:38:36.899Z,2.17
2022-08-21T22:49:09.104Z,1.98
2022-08-21T22:54:22.056Z,1.80
2022-08-21T22:59:30.732Z,2.15
2022-08-21T23:04:33.701Z,2.33
2022-08-21T23:09:48.116Z,1.90
2022-08-21T23:14:54.754Z,2.30
2022-08-21T23:20:43.609Z,1.98
2022-08-21T23:25:58.411Z,2.25
2022-08-21T23:31:35.155Z,1.92
2022-08-21T23:37:13.691Z,2.08
2022-08-21T23:42:45.611Z,2.55
2022-08-21T23:47:59.280Z,2.38
2022-08-21T23:53:38.890Z,2.03
2022-08-21T23:58:46.398Z,2.20
